Startpagina
METAR-TAF:

METAR-TAF

Vliegvelden :

Mönchengladbach, Duitsland

Flughafen Mönchengladbach

breedte: 51-13-49N, lengte: 006-30-16E, hoogte: 38 m

Actueel weer

Dit bericht is 20 minuten geleden gemaakt, om 10:50 UTC
Wind 6 kt uit het zuidoosten, variërend tussen het oostnoordoosten en het zuiden
Temperatuur 24°C
Vochtigheid 47%
Druk 1022 hPa
Zicht 10 km of meer
geen wolken onder 1500 m en geen cumulonimbus

METAR: EDLN 261050Z 13006KT 070V190 CAVOK 24/12 Q1022

Tijdstip: 13:10 (11:10 UTC)

Verwachting

Dit bericht is 3 uur en het 10 minuten geleden gemaakt, om 08:00 UTC
Verwachting geldig van 26 om 09 UTC tot 26 om 18 UTC
Wind 7 kt uit het oosten
Zicht 10 km of meer
geen wolken onder 1500 m en geen cumulonimbus

TAF: EDLN 260800Z 2609/2618 08007KT CAVOK

Waarnemingen en weersverwachtingen van meer dan 4000 vliegvelden (METAR en TAF).

De beschikbare stations zijn de gele en rode punten op de kaart.

Ga met uw muis naar het station om de naam te zien.

Klik dan om waarnemingen en weersverwachtingen te zien.

kaart wijzigen: klik op de groene knoppen met een zwart kruis om in te zoomen, op de groene knop met een streepje om uit te zoomen of op de groene pijlen voor aangrenzende kaarten.


METAR-TAF: